Terminal Aerodrome Forecast
Issued by NWS

Home | Current Version | Previous Version | Text Only | Print | Product List | Glossary On
Versions: 1 2 3 4 5 6 7 8 9 10 11 12 13 14 15 16 17
000
FTAK31 PAJN 301100
TAFAYA
TAF
PAYA 301123Z 3012/3112 09004KT P6SM -SHRA SCT010 SCT025 OVC050
      TEMPO 3012/3014 6SM -SHRA BKN025
     FM301400 07002KT P6SM BCFG VCSH SCT002 SCT025 BKN050
     FM301900 14006KT P6SM BKN050
     FM310300 VRB03KT P6SM SCT050 BKN100
     FM311000 00000KT P6SM VCFG SCT001 BKN100
      AMD LTD TO CLD VIS AND WIND 3101/3110=

USA.gov is the U.S. government's official web portal to all federal, state and local government web resources and services.